sensor_id;sensor_type;location;lat;lon;timestamp;P1;durP1;ratioP1;P2;durP2;ratioP2
5559;SDS011;2803;47.916;8.074;2023-11-19T00:00:58;1.00;;;0.60;;
5559;SDS011;2803;47.916;8.074;2023-11-19T00:03:25;0.80;;;0.50;;
5559;SDS011;2803;47.916;8.074;2023-11-19T00:05:51;5.80;;;1.00;;
5559;SDS011;2803;47.916;8.074;2023-11-19T00:08:19;2.10;;;1.10;;
5559;SDS011;2803;47.916;8.074;2023-11-19T00:10:46;3.27;;;0.77;;
5559;SDS011;2803;47.916;8.074;2023-11-19T00:13:12;3.97;;;0.90;;
5559;SDS011;2803;47.916;8.074;2023-11-19T00:15:39;8.53;;;1.23;;
5559;SDS011;2803;47.916;8.074;2023-11-19T00:18:05;1.90;;;0.73;;
5559;SDS011;2803;47.916;8.074;2023-11-19T00:20:32;2.13;;;0.90;;
5559;SDS011;2803;47.916;8.074;2023-11-19T00:22:59;18.60;;;6.50;;
5559;SDS011;2803;47.916;8.074;2023-11-19T00:25:28;5.20;;;1.90;;
5559;SDS011;2803;47.916;8.074;2023-11-19T00:27:55;24.30;;;10.30;;
5559;SDS011;2803;47.916;8.074;2023-11-19T00:30:22;10.23;;;4.83;;
5559;SDS011;2803;47.916;8.074;2023-11-19T00:32:48;22.40;;;9.40;;
5559;SDS011;2803;47.916;8.074;2023-11-19T00:35:15;14.83;;;6.23;;
5559;SDS011;2803;47.916;8.074;2023-11-19T00:37:41;12.43;;;5.20;;
5559;SDS011;2803;47.916;8.074;2023-11-19T00:40:10;9.50;;;3.33;;
5559;SDS011;2803;47.916;8.074;2023-11-19T00:42:38;7.17;;;2.70;;
5559;SDS011;2803;47.916;8.074;2023-11-19T00:45:05;6.30;;;2.67;;
5559;SDS011;2803;47.916;8.074;2023-11-19T00:47:34;4.67;;;2.17;;
5559;SDS011;2803;47.916;8.074;2023-11-19T00:50:01;10.87;;;2.20;;
5559;SDS011;2803;47.916;8.074;2023-11-19T00:52:28;6.73;;;1.20;;
5559;SDS011;2803;47.916;8.074;2023-11-19T00:54:54;5.43;;;1.30;;
5559;SDS011;2803;47.916;8.074;2023-11-19T00:57:21;4.93;;;1.77;;
5559;SDS011;2803;47.916;8.074;2023-11-19T00:59:50;1.70;;;0.97;;
5559;SDS011;2803;47.916;8.074;2023-11-19T01:02:17;3.07;;;1.10;;
5559;SDS011;2803;47.916;8.074;2023-11-19T01:04:44;2.40;;;0.80;;
5559;SDS011;2803;47.916;8.074;2023-11-19T01:07:10;10.60;;;0.70;;
5559;SDS011;2803;47.916;8.074;2023-11-19T01:09:38;1.80;;;0.90;;
5559;SDS011;2803;47.916;8.074;2023-11-19T01:12:05;1.23;;;0.90;;
5559;SDS011;2803;47.916;8.074;2023-11-19T01:14:32;2.73;;;0.70;;
5559;SDS011;2803;47.916;8.074;2023-11-19T01:17:00;5.40;;;0.70;;
5559;SDS011;2803;47.916;8.074;2023-11-19T01:19:27;3.20;;;0.80;;
5559;SDS011;2803;47.916;8.074;2023-11-19T01:21:54;2.70;;;0.80;;
5559;SDS011;2803;47.916;8.074;2023-11-19T01:24:21;2.00;;;0.80;;
5559;SDS011;2803;47.916;8.074;2023-11-19T01:26:47;4.57;;;1.00;;
5559;SDS011;2803;47.916;8.074;2023-11-19T01:29:14;2.27;;;0.60;;
5559;SDS011;2803;47.916;8.074;2023-11-19T01:31:41;3.43;;;0.60;;
5559;SDS011;2803;47.916;8.074;2023-11-19T01:34:10;4.13;;;1.10;;
5559;SDS011;2803;47.916;8.074;2023-11-19T01:36:37;0.90;;;0.60;;
5559;SDS011;2803;47.916;8.074;2023-11-19T01:39:04;1.00;;;0.50;;
5559;SDS011;2803;47.916;8.074;2023-11-19T01:41:33;1.47;;;0.60;;
5559;SDS011;2803;47.916;8.074;2023-11-19T01:44:00;4.50;;;0.50;;
5559;SDS011;2803;47.916;8.074;2023-11-19T01:46:27;1.67;;;0.50;;
5559;SDS011;2803;47.916;8.074;2023-11-19T01:48:54;1.03;;;0.73;;
5559;SDS011;2803;47.916;8.074;2023-11-19T01:51:23;2.60;;;0.93;;
5559;SDS011;2803;47.916;8.074;2023-11-19T01:53:50;2.30;;;1.10;;
5559;SDS011;2803;47.916;8.074;2023-11-19T01:56:17;3.40;;;0.70;;
5559;SDS011;2803;47.916;8.074;2023-11-19T01:58:44;0.90;;;0.60;;
5559;SDS011;2803;47.916;8.074;2023-11-19T02:01:12;3.13;;;0.60;;
5559;SDS011;2803;47.916;8.074;2023-11-19T02:03:39;8.40;;;6.77;;
5559;SDS011;2803;47.916;8.074;2023-11-19T02:06:06;1.13;;;1.03;;
5559;SDS011;2803;47.916;8.074;2023-11-19T02:08:36;1.10;;;0.80;;
5559;SDS011;2803;47.916;8.074;2023-11-19T02:11:03;2.03;;;1.20;;
5559;SDS011;2803;47.916;8.074;2023-11-19T02:13:31;1.73;;;0.90;;
5559;SDS011;2803;47.916;8.074;2023-11-19T02:15:58;3.27;;;0.80;;
5559;SDS011;2803;47.916;8.074;2023-11-19T02:18:27;3.13;;;0.90;;
5559;SDS011;2803;47.916;8.074;2023-11-19T02:20:54;0.90;;;0.57;;
5559;SDS011;2803;47.916;8.074;2023-11-19T02:23:21;0.80;;;0.40;;
5559;SDS011;2803;47.916;8.074;2023-11-19T02:25:54;0.90;;;0.60;;
5559;SDS011;2803;47.916;8.074;2023-11-19T02:28:27;1.40;;;0.60;;
5559;SDS011;2803;47.916;8.074;2023-11-19T02:30:54;0.90;;;0.60;;
5559;SDS011;2803;47.916;8.074;2023-11-19T02:33:21;1.63;;;0.63;;
5559;SDS011;2803;47.916;8.074;2023-11-19T02:35:48;3.20;;;0.70;;
5559;SDS011;2803;47.916;8.074;2023-11-19T02:38:14;1.43;;;0.80;;
5559;SDS011;2803;47.916;8.074;2023-11-19T02:40:41;1.13;;;0.60;;
5559;SDS011;2803;47.916;8.074;2023-11-19T02:43:08;5.13;;;1.20;;
5559;SDS011;2803;47.916;8.074;2023-11-19T02:45:36;1.00;;;0.60;;
5559;SDS011;2803;47.916;8.074;2023-11-19T02:48:02;4.67;;;0.63;;
5559;SDS011;2803;47.916;8.074;2023-11-19T02:50:31;2.20;;;0.50;;
5559;SDS011;2803;47.916;8.074;2023-11-19T02:52:58;2.53;;;0.80;;
5559;SDS011;2803;47.916;8.074;2023-11-19T02:55:26;1.10;;;0.60;;
5559;SDS011;2803;47.916;8.074;2023-11-19T02:57:55;4.27;;;1.03;;
5559;SDS011;2803;47.916;8.074;2023-11-19T03:00:24;1.47;;;0.60;;
5559;SDS011;2803;47.916;8.074;2023-11-19T03:02:58;1.50;;;0.70;;
5559;SDS011;2803;47.916;8.074;2023-11-19T03:05:30;1.23;;;0.70;;
5559;SDS011;2803;47.916;8.074;2023-11-19T03:07:57;1.33;;;0.53;;
5559;SDS011;2803;47.916;8.074;2023-11-19T03:10:23;0.90;;;0.50;;
5559;SDS011;2803;47.916;8.074;2023-11-19T03:12:51;0.87;;;0.50;;
5559;SDS011;2803;47.916;8.074;2023-11-19T03:15:17;2.27;;;0.50;;
5559;SDS011;2803;47.916;8.074;2023-11-19T03:17:46;1.20;;;0.43;;
5559;SDS011;2803;47.916;8.074;2023-11-19T03:20:14;0.90;;;0.40;;
5559;SDS011;2803;47.916;8.074;2023-11-19T03:22:41;0.90;;;0.53;;
5559;SDS011;2803;47.916;8.074;2023-11-19T03:25:09;0.80;;;0.50;;
5559;SDS011;2803;47.916;8.074;2023-11-19T03:27:35;0.90;;;0.50;;
5559;SDS011;2803;47.916;8.074;2023-11-19T03:30:03;2.40;;;0.50;;
5559;SDS011;2803;47.916;8.074;2023-11-19T03:32:31;1.00;;;0.50;;
5559;SDS011;2803;47.916;8.074;2023-11-19T03:34:58;3.07;;;0.50;;
5559;SDS011;2803;47.916;8.074;2023-11-19T03:37:26;0.70;;;0.40;;
5559;SDS011;2803;47.916;8.074;2023-11-19T03:39:53;1.20;;;0.40;;
5559;SDS011;2803;47.916;8.074;2023-11-19T03:42:22;0.90;;;0.40;;
5559;SDS011;2803;47.916;8.074;2023-11-19T03:44:49;0.80;;;0.40;;
5559;SDS011;2803;47.916;8.074;2023-11-19T03:47:15;1.23;;;0.50;;
5559;SDS011;2803;47.916;8.074;2023-11-19T03:49:42;0.70;;;0.40;;
5559;SDS011;2803;47.916;8.074;2023-11-19T03:52:09;0.70;;;0.40;;
5559;SDS011;2803;47.916;8.074;2023-11-19T03:54:36;1.00;;;0.50;;
5559;SDS011;2803;47.916;8.074;2023-11-19T03:57:03;0.70;;;0.40;;
5559;SDS011;2803;47.916;8.074;2023-11-19T03:59:30;0.80;;;0.50;;
5559;SDS011;2803;47.916;8.074;2023-11-19T04:01:58;0.70;;;0.40;;
5559;SDS011;2803;47.916;8.074;2023-11-19T04:04:25;2.13;;;0.50;;
5559;SDS011;2803;47.916;8.074;2023-11-19T04:06:52;1.10;;;0.50;;
5559;SDS011;2803;47.916;8.074;2023-11-19T04:09:19;1.93;;;0.47;;
5559;SDS011;2803;47.916;8.074;2023-11-19T04:11:46;0.73;;;0.40;;
5559;SDS011;2803;47.916;8.074;2023-11-19T04:14:13;0.80;;;0.50;;
5559;SDS011;2803;47.916;8.074;2023-11-19T04:16:43;0.80;;;0.50;;
5559;SDS011;2803;47.916;8.074;2023-11-19T04:19:09;0.80;;;0.47;;
5559;SDS011;2803;47.916;8.074;2023-11-19T04:21:36;0.80;;;0.40;;
5559;SDS011;2803;47.916;8.074;2023-11-19T04:24:02;0.80;;;0.40;;
5559;SDS011;2803;47.916;8.074;2023-11-19T04:26:29;0.80;;;0.50;;
5559;SDS011;2803;47.916;8.074;2023-11-19T04:28:57;0.80;;;0.50;;
5559;SDS011;2803;47.916;8.074;2023-11-19T04:31:28;0.70;;;0.40;;
5559;SDS011;2803;47.916;8.074;2023-11-19T04:33:55;1.47;;;0.50;;
5559;SDS011;2803;47.916;8.074;2023-11-19T04:36:21;0.80;;;0.50;;
5559;SDS011;2803;47.916;8.074;2023-11-19T04:38:49;0.80;;;0.43;;
5559;SDS011;2803;47.916;8.074;2023-11-19T04:41:16;1.10;;;0.40;;
5559;SDS011;2803;47.916;8.074;2023-11-19T04:43:42;0.70;;;0.40;;
5559;SDS011;2803;47.916;8.074;2023-11-19T04:46:10;1.20;;;0.50;;
5559;SDS011;2803;47.916;8.074;2023-11-19T04:48:37;1.27;;;0.50;;
5559;SDS011;2803;47.916;8.074;2023-11-19T04:51:04;1.00;;;0.50;;
5559;SDS011;2803;47.916;8.074;2023-11-19T04:53:31;2.80;;;0.53;;
5559;SDS011;2803;47.916;8.074;2023-11-19T04:55:57;1.00;;;0.50;;
5559;SDS011;2803;47.916;8.074;2023-11-19T04:58:24;0.80;;;0.40;;
5559;SDS011;2803;47.916;8.074;2023-11-19T05:00:51;1.03;;;0.50;;
5559;SDS011;2803;47.916;8.074;2023-11-19T05:03:19;0.90;;;0.60;;
5559;SDS011;2803;47.916;8.074;2023-11-19T05:05:45;0.70;;;0.47;;
5559;SDS011;2803;47.916;8.074;2023-11-19T05:08:12;2.00;;;0.50;;
5559;SDS011;2803;47.916;8.074;2023-11-19T05:10:38;0.80;;;0.50;;
5559;SDS011;2803;47.916;8.074;2023-11-19T05:13:05;0.80;;;0.40;;
5559;SDS011;2803;47.916;8.074;2023-11-19T05:15:32;0.80;;;0.40;;
5559;SDS011;2803;47.916;8.074;2023-11-19T05:17:59;0.83;;;0.50;;
5559;SDS011;2803;47.916;8.074;2023-11-19T05:20:27;0.80;;;0.40;;
5559;SDS011;2803;47.916;8.074;2023-11-19T05:22:53;0.80;;;0.50;;
5559;SDS011;2803;47.916;8.074;2023-11-19T05:25:20;1.37;;;0.60;;
5559;SDS011;2803;47.916;8.074;2023-11-19T05:27:46;0.70;;;0.40;;
5559;SDS011;2803;47.916;8.074;2023-11-19T05:30:13;0.80;;;0.50;;
5559;SDS011;2803;47.916;8.074;2023-11-19T05:32:40;0.70;;;0.40;;
5559;SDS011;2803;47.916;8.074;2023-11-19T05:35:07;1.00;;;0.40;;
5559;SDS011;2803;47.916;8.074;2023-11-19T05:37:35;0.80;;;0.50;;
5559;SDS011;2803;47.916;8.074;2023-11-19T05:40:02;0.93;;;0.47;;
5559;SDS011;2803;47.916;8.074;2023-11-19T05:42:33;0.80;;;0.40;;
5559;SDS011;2803;47.916;8.074;2023-11-19T05:45:00;0.90;;;0.50;;
5559;SDS011;2803;47.916;8.074;2023-11-19T05:47:26;0.80;;;0.40;;
5559;SDS011;2803;47.916;8.074;2023-11-19T05:49:53;0.80;;;0.50;;
5559;SDS011;2803;47.916;8.074;2023-11-19T05:52:19;0.70;;;0.40;;
5559;SDS011;2803;47.916;8.074;2023-11-19T05:54:48;0.87;;;0.53;;
5559;SDS011;2803;47.916;8.074;2023-11-19T05:57:17;0.77;;;0.40;;
5559;SDS011;2803;47.916;8.074;2023-11-19T05:59:45;0.70;;;0.40;;
5559;SDS011;2803;47.916;8.074;2023-11-19T06:02:11;0.80;;;0.50;;
5559;SDS011;2803;47.916;8.074;2023-11-19T06:04:38;0.80;;;0.40;;
5559;SDS011;2803;47.916;8.074;2023-11-19T06:07:05;0.80;;;0.50;;
5559;SDS011;2803;47.916;8.074;2023-11-19T06:09:31;0.80;;;0.40;;
5559;SDS011;2803;47.916;8.074;2023-11-19T06:12:00;0.80;;;0.40;;
5559;SDS011;2803;47.916;8.074;2023-11-19T06:14:28;0.70;;;0.40;;
5559;SDS011;2803;47.916;8.074;2023-11-19T06:16:55;0.80;;;0.40;;
5559;SDS011;2803;47.916;8.074;2023-11-19T06:19:21;0.80;;;0.40;;
5559;SDS011;2803;47.916;8.074;2023-11-19T06:21:49;2.30;;;0.60;;
5559;SDS011;2803;47.916;8.074;2023-11-19T06:24:16;1.00;;;0.60;;
5559;SDS011;2803;47.916;8.074;2023-11-19T06:26:42;0.80;;;0.50;;
5559;SDS011;2803;47.916;8.074;2023-11-19T06:29:09;0.80;;;0.60;;
5559;SDS011;2803;47.916;8.074;2023-11-19T06:31:36;1.53;;;0.50;;
5559;SDS011;2803;47.916;8.074;2023-11-19T06:34:03;0.90;;;0.50;;
5559;SDS011;2803;47.916;8.074;2023-11-19T06:36:29;0.80;;;0.50;;
5559;SDS011;2803;47.916;8.074;2023-11-19T06:38:56;5.40;;;0.67;;
5559;SDS011;2803;47.916;8.074;2023-11-19T06:41:22;1.60;;;0.47;;
5559;SDS011;2803;47.916;8.074;2023-11-19T06:43:49;2.60;;;0.60;;
5559;SDS011;2803;47.916;8.074;2023-11-19T06:46:18;1.57;;;0.60;;
5559;SDS011;2803;47.916;8.074;2023-11-19T06:48:45;0.77;;;0.40;;
5559;SDS011;2803;47.916;8.074;2023-11-19T06:51:12;0.80;;;0.43;;
5559;SDS011;2803;47.916;8.074;2023-11-19T06:53:39;1.43;;;0.60;;
5559;SDS011;2803;47.916;8.074;2023-11-19T06:56:06;1.50;;;0.50;;
5559;SDS011;2803;47.916;8.074;2023-11-19T06:58:43;1.10;;;0.70;;
5559;SDS011;2803;47.916;8.074;2023-11-19T07:01:10;0.90;;;0.50;;
5559;SDS011;2803;47.916;8.074;2023-11-19T07:03:38;0.90;;;0.40;;
5559;SDS011;2803;47.916;8.074;2023-11-19T07:06:05;1.23;;;0.70;;
5559;SDS011;2803;47.916;8.074;2023-11-19T07:08:31;0.80;;;0.53;;
5559;SDS011;2803;47.916;8.074;2023-11-19T07:10:59;0.90;;;0.57;;
5559;SDS011;2803;47.916;8.074;2023-11-19T07:13:26;1.00;;;0.50;;
5559;SDS011;2803;47.916;8.074;2023-11-19T07:15:53;1.40;;;0.60;;
5559;SDS011;2803;47.916;8.074;2023-11-19T07:18:19;0.80;;;0.50;;
5559;SDS011;2803;47.916;8.074;2023-11-19T07:20:48;0.73;;;0.43;;
5559;SDS011;2803;47.916;8.074;2023-11-19T07:23:14;1.17;;;0.50;;
5559;SDS011;2803;47.916;8.074;2023-11-19T07:25:42;0.80;;;0.50;;
5559;SDS011;2803;47.916;8.074;2023-11-19T07:28:09;0.80;;;0.50;;
5559;SDS011;2803;47.916;8.074;2023-11-19T07:30:36;0.77;;;0.40;;
5559;SDS011;2803;47.916;8.074;2023-11-19T07:33:04;0.80;;;0.50;;
5559;SDS011;2803;47.916;8.074;2023-11-19T07:35:31;1.20;;;0.70;;
5559;SDS011;2803;47.916;8.074;2023-11-19T07:37:59;5.30;;;0.53;;
5559;SDS011;2803;47.916;8.074;2023-11-19T07:40:25;2.80;;;0.70;;
5559;SDS011;2803;47.916;8.074;2023-11-19T07:42:52;1.23;;;0.63;;
5559;SDS011;2803;47.916;8.074;2023-11-19T07:45:19;0.90;;;0.50;;
5559;SDS011;2803;47.916;8.074;2023-11-19T07:47:46;1.00;;;0.50;;
5559;SDS011;2803;47.916;8.074;2023-11-19T07:50:12;1.30;;;0.53;;
5559;SDS011;2803;47.916;8.074;2023-11-19T07:52:41;0.80;;;0.50;;
5559;SDS011;2803;47.916;8.074;2023-11-19T07:55:09;1.10;;;0.50;;
5559;SDS011;2803;47.916;8.074;2023-11-19T07:57:36;0.80;;;0.50;;
5559;SDS011;2803;47.916;8.074;2023-11-19T08:00:03;0.80;;;0.50;;
5559;SDS011;2803;47.916;8.074;2023-11-19T08:02:31;2.13;;;0.50;;
5559;SDS011;2803;47.916;8.074;2023-11-19T08:04:58;1.10;;;0.60;;
5559;SDS011;2803;47.916;8.074;2023-11-19T08:07:24;0.80;;;0.40;;
5559;SDS011;2803;47.916;8.074;2023-11-19T08:09:51;1.10;;;0.50;;
5559;SDS011;2803;47.916;8.074;2023-11-19T08:12:19;1.80;;;0.50;;
5559;SDS011;2803;47.916;8.074;2023-11-19T08:14:46;1.00;;;0.60;;
5559;SDS011;2803;47.916;8.074;2023-11-19T08:17:13;1.03;;;0.40;;
5559;SDS011;2803;47.916;8.074;2023-11-19T08:19:41;0.90;;;0.50;;
5559;SDS011;2803;47.916;8.074;2023-11-19T08:22:07;1.30;;;0.60;;
5559;SDS011;2803;47.916;8.074;2023-11-19T08:24:35;0.80;;;0.40;;
5559;SDS011;2803;47.916;8.074;2023-11-19T08:27:01;0.80;;;0.40;;
5559;SDS011;2803;47.916;8.074;2023-11-19T08:29:30;0.90;;;0.57;;
5559;SDS011;2803;47.916;8.074;2023-11-19T08:31:56;0.90;;;0.60;;
5559;SDS011;2803;47.916;8.074;2023-11-19T08:34:23;0.70;;;0.43;;
5559;SDS011;2803;47.916;8.074;2023-11-19T08:36:50;6.10;;;0.70;;
5559;SDS011;2803;47.916;8.074;2023-11-19T08:39:18;1.37;;;0.43;;
5559;SDS011;2803;47.916;8.074;2023-11-19T08:41:44;2.87;;;0.70;;
5559;SDS011;2803;47.916;8.074;2023-11-19T08:44:11;0.80;;;0.50;;
5559;SDS011;2803;47.916;8.074;2023-11-19T08:46:39;0.80;;;0.50;;
5559;SDS011;2803;47.916;8.074;2023-11-19T08:49:12;0.90;;;0.50;;
5559;SDS011;2803;47.916;8.074;2023-11-19T08:51:39;0.80;;;0.40;;
5559;SDS011;2803;47.916;8.074;2023-11-19T08:54:06;1.47;;;0.70;;
5559;SDS011;2803;47.916;8.074;2023-11-19T08:56:33;0.80;;;0.50;;
5559;SDS011;2803;47.916;8.074;2023-11-19T08:59:00;0.80;;;0.50;;
5559;SDS011;2803;47.916;8.074;2023-11-19T09:01:27;0.90;;;0.50;;
5559;SDS011;2803;47.916;8.074;2023-11-19T09:03:55;1.10;;;0.50;;
5559;SDS011;2803;47.916;8.074;2023-11-19T09:06:22;0.90;;;0.40;;
5559;SDS011;2803;47.916;8.074;2023-11-19T09:08:49;0.80;;;0.50;;
5559;SDS011;2803;47.916;8.074;2023-11-19T09:11:16;5.20;;;0.70;;
5559;SDS011;2803;47.916;8.074;2023-11-19T09:13:43;2.17;;;0.90;;
5559;SDS011;2803;47.916;8.074;2023-11-19T09:16:11;0.90;;;0.40;;
5559;SDS011;2803;47.916;8.074;2023-11-19T09:18:37;2.53;;;0.70;;
5559;SDS011;2803;47.916;8.074;2023-11-19T09:21:05;1.23;;;0.67;;
5559;SDS011;2803;47.916;8.074;2023-11-19T09:23:32;1.97;;;0.93;;
5559;SDS011;2803;47.916;8.074;2023-11-19T09:26:04;1.33;;;0.60;;
5559;SDS011;2803;47.916;8.074;2023-11-19T09:28:31;1.40;;;0.60;;
5559;SDS011;2803;47.916;8.074;2023-11-19T09:30:58;0.80;;;0.50;;
5559;SDS011;2803;47.916;8.074;2023-11-19T09:33:25;3.73;;;0.63;;
5559;SDS011;2803;47.916;8.074;2023-11-19T09:35:51;1.80;;;0.70;;
5559;SDS011;2803;47.916;8.074;2023-11-19T09:38:19;2.57;;;0.87;;
5559;SDS011;2803;47.916;8.074;2023-11-19T09:40:46;0.83;;;0.50;;
5559;SDS011;2803;47.916;8.074;2023-11-19T09:43:13;0.80;;;0.50;;
5559;SDS011;2803;47.916;8.074;2023-11-19T09:45:43;1.50;;;0.50;;
5559;SDS011;2803;47.916;8.074;2023-11-19T09:48:15;0.80;;;0.50;;
5559;SDS011;2803;47.916;8.074;2023-11-19T09:50:43;0.80;;;0.50;;
5559;SDS011;2803;47.916;8.074;2023-11-19T09:53:11;1.07;;;0.60;;
5559;SDS011;2803;47.916;8.074;2023-11-19T09:55:38;0.80;;;0.50;;
5559;SDS011;2803;47.916;8.074;2023-11-19T09:58:05;2.10;;;0.40;;
5559;SDS011;2803;47.916;8.074;2023-11-19T10:00:33;0.80;;;0.50;;
5559;SDS011;2803;47.916;8.074;2023-11-19T10:03:00;0.90;;;0.50;;
5559;SDS011;2803;47.916;8.074;2023-11-19T10:05:30;0.90;;;0.50;;
5559;SDS011;2803;47.916;8.074;2023-11-19T10:07:57;0.93;;;0.50;;
5559;SDS011;2803;47.916;8.074;2023-11-19T10:10:24;1.63;;;0.50;;
5559;SDS011;2803;47.916;8.074;2023-11-19T10:12:52;0.80;;;0.50;;
5559;SDS011;2803;47.916;8.074;2023-11-19T10:15:20;1.00;;;0.60;;
5559;SDS011;2803;47.916;8.074;2023-11-19T10:17:49;1.33;;;0.60;;
5559;SDS011;2803;47.916;8.074;2023-11-19T10:20:15;1.40;;;0.60;;
5559;SDS011;2803;47.916;8.074;2023-11-19T10:22:42;1.20;;;0.60;;
5559;SDS011;2803;47.916;8.074;2023-11-19T10:25:20;0.90;;;0.60;;
5559;SDS011;2803;47.916;8.074;2023-11-19T10:27:48;3.70;;;0.83;;
5559;SDS011;2803;47.916;8.074;2023-11-19T10:30:18;0.93;;;0.60;;
5559;SDS011;2803;47.916;8.074;2023-11-19T10:32:50;0.90;;;0.50;;
5559;SDS011;2803;47.916;8.074;2023-11-19T10:35:29;0.90;;;0.60;;
5559;SDS011;2803;47.916;8.074;2023-11-19T10:37:56;2.93;;;0.50;;
5559;SDS011;2803;47.916;8.074;2023-11-19T10:40:28;1.30;;;0.63;;
5559;SDS011;2803;47.916;8.074;2023-11-19T10:43:04;3.57;;;0.90;;
5559;SDS011;2803;47.916;8.074;2023-11-19T10:45:34;1.10;;;0.50;;
5559;SDS011;2803;47.916;8.074;2023-11-19T10:48:00;0.80;;;0.50;;
5559;SDS011;2803;47.916;8.074;2023-11-19T10:50:32;0.80;;;0.47;;
5559;SDS011;2803;47.916;8.074;2023-11-19T10:53:00;0.90;;;0.60;;
5559;SDS011;2803;47.916;8.074;2023-11-19T10:55:27;2.50;;;0.60;;
5559;SDS011;2803;47.916;8.074;2023-11-19T10:57:58;1.33;;;0.77;;
5559;SDS011;2803;47.916;8.074;2023-11-19T11:00:27;2.97;;;0.50;;
5559;SDS011;2803;47.916;8.074;2023-11-19T11:03:00;1.17;;;0.50;;
5559;SDS011;2803;47.916;8.074;2023-11-19T11:05:28;0.90;;;0.50;;
5559;SDS011;2803;47.916;8.074;2023-11-19T11:07:58;2.30;;;0.50;;
5559;SDS011;2803;47.916;8.074;2023-11-19T11:10:26;1.47;;;0.50;;
5559;SDS011;2803;47.916;8.074;2023-11-19T11:12:53;1.90;;;0.57;;
5559;SDS011;2803;47.916;8.074;2023-11-19T11:15:24;2.63;;;0.50;;
5559;SDS011;2803;47.916;8.074;2023-11-19T11:17:54;1.47;;;0.60;;
5559;SDS011;2803;47.916;8.074;2023-11-19T11:20:26;0.90;;;0.60;;
5559;SDS011;2803;47.916;8.074;2023-11-19T11:22:56;1.30;;;0.57;;
5559;SDS011;2803;47.916;8.074;2023-11-19T11:25:36;0.90;;;0.50;;
5559;SDS011;2803;47.916;8.074;2023-11-19T11:28:15;1.13;;;0.50;;
5559;SDS011;2803;47.916;8.074;2023-11-19T11:30:55;1.20;;;0.40;;
5559;SDS011;2803;47.916;8.074;2023-11-19T11:33:37;1.73;;;0.60;;
5559;SDS011;2803;47.916;8.074;2023-11-19T11:36:13;0.80;;;0.50;;
5559;SDS011;2803;47.916;8.074;2023-11-19T11:38:45;0.80;;;0.40;;
5559;SDS011;2803;47.916;8.074;2023-11-19T11:41:15;1.77;;;0.60;;
5559;SDS011;2803;47.916;8.074;2023-11-19T11:43:44;0.87;;;0.50;;
5559;SDS011;2803;47.916;8.074;2023-11-19T11:49:07;1.50;;;0.60;;
5559;SDS011;2803;47.916;8.074;2023-11-19T11:54:26;2.17;;;0.60;;
5559;SDS011;2803;47.916;8.074;2023-11-19T11:57:03;0.80;;;0.50;;
5559;SDS011;2803;47.916;8.074;2023-11-19T11:59:36;1.13;;;0.63;;
5559;SDS011;2803;47.916;8.074;2023-11-19T12:02:09;6.10;;;0.60;;
5559;SDS011;2803;47.916;8.074;2023-11-19T12:04:36;1.00;;;0.70;;
5559;SDS011;2803;47.916;8.074;2023-11-19T12:07:05;0.80;;;0.50;;
5559;SDS011;2803;47.916;8.074;2023-11-19T12:09:33;1.13;;;0.60;;
5559;SDS011;2803;47.916;8.074;2023-11-19T12:12:07;1.10;;;0.70;;
5559;SDS011;2803;47.916;8.074;2023-11-19T12:17:37;1.87;;;0.60;;
5559;SDS011;2803;47.916;8.074;2023-11-19T12:20:10;1.87;;;0.70;;
5559;SDS011;2803;47.916;8.074;2023-11-19T12:22:38;0.90;;;0.60;;
5559;SDS011;2803;47.916;8.074;2023-11-19T12:25:06;1.00;;;0.50;;
5559;SDS011;2803;47.916;8.074;2023-11-19T12:27:34;1.20;;;0.50;;
5559;SDS011;2803;47.916;8.074;2023-11-19T12:30:01;5.10;;;0.60;;
5559;SDS011;2803;47.916;8.074;2023-11-19T12:32:37;1.13;;;0.60;;
5559;SDS011;2803;47.916;8.074;2023-11-19T12:35:04;0.90;;;0.50;;
5559;SDS011;2803;47.916;8.074;2023-11-19T12:37:39;0.90;;;0.50;;
5559;SDS011;2803;47.916;8.074;2023-11-19T12:40:10;3.43;;;0.50;;
5559;SDS011;2803;47.916;8.074;2023-11-19T12:42:42;1.10;;;0.63;;
5559;SDS011;2803;47.916;8.074;2023-11-19T12:45:09;1.50;;;0.70;;
5559;SDS011;2803;47.916;8.074;2023-11-19T12:47:37;1.33;;;0.83;;
5559;SDS011;2803;47.916;8.074;2023-11-19T12:50:04;2.23;;;0.60;;
5559;SDS011;2803;47.916;8.074;2023-11-19T12:52:31;0.90;;;0.57;;
5559;SDS011;2803;47.916;8.074;2023-11-19T12:54:59;2.13;;;0.70;;
5559;SDS011;2803;47.916;8.074;2023-11-19T13:00:17;0.80;;;0.50;;
5559;SDS011;2803;47.916;8.074;2023-11-19T13:02:47;0.93;;;0.57;;
5559;SDS011;2803;47.916;8.074;2023-11-19T13:07:58;2.23;;;0.50;;
5559;SDS011;2803;47.916;8.074;2023-11-19T13:10:27;0.90;;;0.57;;
5559;SDS011;2803;47.916;8.074;2023-11-19T13:13:01;3.43;;;0.87;;
5559;SDS011;2803;47.916;8.074;2023-11-19T13:15:30;2.00;;;0.60;;
5559;SDS011;2803;47.916;8.074;2023-11-19T13:17:57;1.00;;;0.70;;
5559;SDS011;2803;47.916;8.074;2023-11-19T13:20:23;1.13;;;0.50;;
5559;SDS011;2803;47.916;8.074;2023-11-19T13:22:54;1.13;;;0.73;;
5559;SDS011;2803;47.916;8.074;2023-11-19T13:25:21;0.87;;;0.50;;
5559;SDS011;2803;47.916;8.074;2023-11-19T13:27:49;1.97;;;0.70;;
5559;SDS011;2803;47.916;8.074;2023-11-19T13:30:16;0.90;;;0.60;;
5559;SDS011;2803;47.916;8.074;2023-11-19T13:32:43;0.90;;;0.50;;
5559;SDS011;2803;47.916;8.074;2023-11-19T13:35:11;1.13;;;0.50;;
5559;SDS011;2803;47.916;8.074;2023-11-19T13:37:37;7.80;;;1.00;;
5559;SDS011;2803;47.916;8.074;2023-11-19T13:40:04;1.37;;;0.50;;
5559;SDS011;2803;47.916;8.074;2023-11-19T13:42:32;1.73;;;0.60;;
5559;SDS011;2803;47.916;8.074;2023-11-19T13:45:00;1.27;;;0.80;;
5559;SDS011;2803;47.916;8.074;2023-11-19T13:47:26;0.80;;;0.50;;
5559;SDS011;2803;47.916;8.074;2023-11-19T13:49:53;2.43;;;0.80;;
5559;SDS011;2803;47.916;8.074;2023-11-19T13:52:20;1.53;;;0.70;;
5559;SDS011;2803;47.916;8.074;2023-11-19T13:54:46;6.00;;;0.90;;
5559;SDS011;2803;47.916;8.074;2023-11-19T13:57:13;7.33;;;0.73;;
5559;SDS011;2803;47.916;8.074;2023-11-19T13:59:39;2.60;;;0.60;;
5559;SDS011;2803;47.916;8.074;2023-11-19T14:02:07;2.30;;;0.70;;
5559;SDS011;2803;47.916;8.074;2023-11-19T14:04:34;1.80;;;0.80;;
5559;SDS011;2803;47.916;8.074;2023-11-19T14:07:01;1.60;;;0.87;;
5559;SDS011;2803;47.916;8.074;2023-11-19T14:09:28;0.93;;;0.53;;
5559;SDS011;2803;47.916;8.074;2023-11-19T14:11:55;1.13;;;0.70;;
5559;SDS011;2803;47.916;8.074;2023-11-19T14:14:22;1.57;;;0.90;;
5559;SDS011;2803;47.916;8.074;2023-11-19T14:16:49;1.53;;;0.80;;
5559;SDS011;2803;47.916;8.074;2023-11-19T14:19:17;1.50;;;0.70;;
5559;SDS011;2803;47.916;8.074;2023-11-19T14:21:43;3.90;;;0.73;;
5559;SDS011;2803;47.916;8.074;2023-11-19T14:24:10;1.13;;;0.60;;
5559;SDS011;2803;47.916;8.074;2023-11-19T14:26:37;1.27;;;0.70;;
5559;SDS011;2803;47.916;8.074;2023-11-19T14:29:04;3.00;;;1.10;;
5559;SDS011;2803;47.916;8.074;2023-11-19T14:31:30;1.10;;;0.70;;
5559;SDS011;2803;47.916;8.074;2023-11-19T14:33:57;2.90;;;1.00;;
5559;SDS011;2803;47.916;8.074;2023-11-19T14:36:25;1.87;;;0.70;;
5559;SDS011;2803;47.916;8.074;2023-11-19T14:38:52;1.10;;;0.70;;
5559;SDS011;2803;47.916;8.074;2023-11-19T14:41:19;5.33;;;0.73;;
5559;SDS011;2803;47.916;8.074;2023-11-19T14:43:44;3.90;;;1.20;;
5559;SDS011;2803;47.916;8.074;2023-11-19T14:46:12;2.63;;;0.93;;
5559;SDS011;2803;47.916;8.074;2023-11-19T14:48:38;5.23;;;0.97;;
5559;SDS011;2803;47.916;8.074;2023-11-19T14:51:05;2.60;;;1.00;;
5559;SDS011;2803;47.916;8.074;2023-11-19T14:53:33;4.23;;;0.90;;
5559;SDS011;2803;47.916;8.074;2023-11-19T14:56:00;3.63;;;1.13;;
5559;SDS011;2803;47.916;8.074;2023-11-19T14:58:27;3.33;;;1.10;;
5559;SDS011;2803;47.916;8.074;2023-11-19T15:00:53;4.27;;;1.50;;
5559;SDS011;2803;47.916;8.074;2023-11-19T15:03:20;1.40;;;0.70;;
5559;SDS011;2803;47.916;8.074;2023-11-19T15:05:47;10.23;;;1.20;;
5559;SDS011;2803;47.916;8.074;2023-11-19T15:08:14;3.37;;;1.00;;
5559;SDS011;2803;47.916;8.074;2023-11-19T15:10:42;2.00;;;0.80;;
5559;SDS011;2803;47.916;8.074;2023-11-19T15:13:10;3.70;;;1.07;;
5559;SDS011;2803;47.916;8.074;2023-11-19T15:15:36;1.20;;;0.80;;
5559;SDS011;2803;47.916;8.074;2023-11-19T15:18:03;4.40;;;1.00;;
5559;SDS011;2803;47.916;8.074;2023-11-19T15:20:30;5.53;;;0.80;;
5559;SDS011;2803;47.916;8.074;2023-11-19T15:22:57;3.20;;;0.87;;
5559;SDS011;2803;47.916;8.074;2023-11-19T15:25:23;2.07;;;1.00;;
5559;SDS011;2803;47.916;8.074;2023-11-19T15:27:51;2.97;;;1.07;;
5559;SDS011;2803;47.916;8.074;2023-11-19T15:30:18;8.17;;;2.00;;
5559;SDS011;2803;47.916;8.074;2023-11-19T15:32:45;3.73;;;1.20;;